Archival Weather

Central Park

Central Park, New York (KNYC)

Report from: Tuesday, September 19, 2023 4:51 PM EDT
Current time: Saturday, July 13, 2024 9:09 PM EDT

Current weather – Weather history – Daily summaries
Weather forecast

Temperature22.2°C (72.0°F)
Dew point9.4°C (48.9°F)
Winds 6 kts (3.1 m/s, 6.9 mph) West-Northwest (300°)
Visibility10 mi. (16.1 km)
Clouds Ceiling: Broken clouds 6,000 ft. (1,829 m)
Altimeter29.99 in.Hg (1016 mB)
Relative humidity44 %
Density altitude965 ft. (294 m)
Sea-level pressure101.5 kPa (1015 mB, 29.96 in.Hg)
Remarks Fully automated report
System requires maintenance
Automated weather observing station with precipitation discriminator
Pressure rising more quickly
Flight conditions Visual Meteorological Conditions
Raw dataKNYC 192051Z AUTO 30006KT 10SM BKN060 22/09 A2999 RMK AO2 SLP145 T02220094 53006 $
An error has occurred. This application may no longer respond until reloaded. Reload 🗙